sensor_id;sensor_type;location;lat;lon;timestamp;P1;durP1;ratioP1;P2;durP2;ratioP2
58643;SDS011;44411;49.994;8.660;2023-05-10T00:02:03;1.93;;;0.50;;
58643;SDS011;44411;49.994;8.660;2023-05-10T00:04:28;2.03;;;0.87;;
58643;SDS011;44411;49.994;8.660;2023-05-10T00:06:53;1.27;;;0.43;;
58643;SDS011;44411;49.994;8.660;2023-05-10T00:09:18;1.23;;;0.50;;
58643;SDS011;44411;49.994;8.660;2023-05-10T00:11:44;2.27;;;0.90;;
58643;SDS011;44411;49.994;8.660;2023-05-10T00:14:09;0.90;;;0.50;;
58643;SDS011;44411;49.994;8.660;2023-05-10T00:16:34;0.80;;;0.60;;
58643;SDS011;44411;49.994;8.660;2023-05-10T00:18:59;0.80;;;0.50;;
58643;SDS011;44411;49.994;8.660;2023-05-10T00:21:24;0.77;;;0.50;;
58643;SDS011;44411;49.994;8.660;2023-05-10T00:23:50;1.23;;;0.90;;
58643;SDS011;44411;49.994;8.660;2023-05-10T00:26:15;1.30;;;0.60;;
58643;SDS011;44411;49.994;8.660;2023-05-10T00:28:41;1.40;;;0.50;;
58643;SDS011;44411;49.994;8.660;2023-05-10T00:31:06;0.53;;;0.43;;
58643;SDS011;44411;49.994;8.660;2023-05-10T00:33:31;2.50;;;0.67;;
58643;SDS011;44411;49.994;8.660;2023-05-10T00:35:57;1.03;;;0.50;;
58643;SDS011;44411;49.994;8.660;2023-05-10T00:38:22;1.73;;;0.70;;
58643;SDS011;44411;49.994;8.660;2023-05-10T00:40:47;2.27;;;0.60;;
58643;SDS011;44411;49.994;8.660;2023-05-10T00:43:12;2.13;;;0.87;;
58643;SDS011;44411;49.994;8.660;2023-05-10T00:45:37;1.75;;;0.70;;
58643;SDS011;44411;49.994;8.660;2023-05-10T00:48:04;1.75;;;0.70;;
58643;SDS011;44411;49.994;8.660;2023-05-10T00:50:30;2.00;;;0.82;;
58643;SDS011;44411;49.994;8.660;2023-05-10T00:52:56;1.65;;;0.70;;
58643;SDS011;44411;49.994;8.660;2023-05-10T00:55:22;1.05;;;0.70;;
58643;SDS011;44411;49.994;8.660;2023-05-10T00:57:48;1.02;;;0.60;;
58643;SDS011;44411;49.994;8.660;2023-05-10T01:00:13;1.70;;;1.00;;
58643;SDS011;44411;49.994;8.660;2023-05-10T01:02:43;2.22;;;0.93;;
58643;SDS011;44411;49.994;8.660;2023-05-10T01:05:08;1.67;;;0.70;;
58643;SDS011;44411;49.994;8.660;2023-05-10T01:07:33;1.58;;;0.80;;
58643;SDS011;44411;49.994;8.660;2023-05-10T01:09:58;0.80;;;0.50;;
58643;SDS011;44411;49.994;8.660;2023-05-10T01:12:23;1.85;;;0.77;;
58643;SDS011;44411;49.994;8.660;2023-05-10T01:14:49;1.37;;;0.80;;
58643;SDS011;44411;49.994;8.660;2023-05-10T01:17:14;1.07;;;0.60;;
58643;SDS011;44411;49.994;8.660;2023-05-10T01:19:40;1.58;;;0.98;;
58643;SDS011;44411;49.994;8.660;2023-05-10T01:27:02;1.80;;;0.80;;
58643;SDS011;44411;49.994;8.660;2023-05-10T01:34:30;1.65;;;0.80;;
58643;SDS011;44411;49.994;8.660;2023-05-10T01:36:58;1.85;;;0.93;;
58643;SDS011;44411;49.994;8.660;2023-05-10T01:39:45;2.17;;;0.90;;
58643;SDS011;44411;49.994;8.660;2023-05-10T01:42:14;2.00;;;0.98;;
58643;SDS011;44411;49.994;8.660;2023-05-10T01:44:58;2.37;;;0.87;;
58643;SDS011;44411;49.994;8.660;2023-05-10T01:47:34;2.78;;;1.00;;
58643;SDS011;44411;49.994;8.660;2023-05-10T01:50:01;2.15;;;0.90;;
58643;SDS011;44411;49.994;8.660;2023-05-10T01:52:32;1.70;;;0.70;;
58643;SDS011;44411;49.994;8.660;2023-05-10T01:57:24;1.98;;;0.80;;
58643;SDS011;44411;49.994;8.660;2023-05-10T01:59:50;2.20;;;1.15;;
58643;SDS011;44411;49.994;8.660;2023-05-10T06:00:49;6.25;;;3.47;;
58643;SDS011;44411;49.994;8.660;2023-05-10T06:03:15;7.53;;;3.90;;
58643;SDS011;44411;49.994;8.660;2023-05-10T06:05:40;5.25;;;3.15;;
58643;SDS011;44411;49.994;8.660;2023-05-10T06:08:05;7.57;;;3.37;;
58643;SDS011;44411;49.994;8.660;2023-05-10T06:10:31;8.23;;;3.45;;
58643;SDS011;44411;49.994;8.660;2023-05-10T06:12:56;8.27;;;3.20;;
58643;SDS011;44411;49.994;8.660;2023-05-10T06:15:21;8.43;;;3.60;;
58643;SDS011;44411;49.994;8.660;2023-05-10T06:17:46;6.50;;;3.72;;
58643;SDS011;44411;49.994;8.660;2023-05-10T06:20:14;6.25;;;4.00;;
58643;SDS011;44411;49.994;8.660;2023-05-10T06:22:39;6.88;;;2.78;;
58643;SDS011;44411;49.994;8.660;2023-05-10T06:25:04;5.97;;;3.40;;
58643;SDS011;44411;49.994;8.660;2023-05-10T06:27:30;5.45;;;3.33;;
58643;SDS011;44411;49.994;8.660;2023-05-10T06:29:55;7.30;;;3.50;;
58643;SDS011;44411;49.994;8.660;2023-05-10T06:32:20;7.13;;;3.30;;
58643;SDS011;44411;49.994;8.660;2023-05-10T06:34:45;6.80;;;3.57;;
58643;SDS011;44411;49.994;8.660;2023-05-10T06:37:11;6.20;;;3.97;;
58643;SDS011;44411;49.994;8.660;2023-05-10T06:39:36;6.07;;;3.77;;
58643;SDS011;44411;49.994;8.660;2023-05-10T06:42:01;5.27;;;3.03;;
58643;SDS011;44411;49.994;8.660;2023-05-10T06:44:28;6.85;;;3.10;;
58643;SDS011;44411;49.994;8.660;2023-05-10T06:46:53;5.43;;;3.13;;
58643;SDS011;44411;49.994;8.660;2023-05-10T06:49:20;8.82;;;3.33;;
58643;SDS011;44411;49.994;8.660;2023-05-10T06:51:45;10.45;;;3.78;;
58643;SDS011;44411;49.994;8.660;2023-05-10T06:54:10;7.93;;;3.43;;
58643;SDS011;44411;49.994;8.660;2023-05-10T06:56:35;6.33;;;3.73;;
58643;SDS011;44411;49.994;8.660;2023-05-10T06:59:01;8.67;;;3.60;;
58643;SDS011;44411;49.994;8.660;2023-05-10T07:01:26;5.45;;;3.28;;
58643;SDS011;44411;49.994;8.660;2023-05-10T07:03:51;5.85;;;3.08;;
58643;SDS011;44411;49.994;8.660;2023-05-10T07:06:17;6.13;;;2.95;;
58643;SDS011;44411;49.994;8.660;2023-05-10T07:08:42;5.43;;;3.50;;
58643;SDS011;44411;49.994;8.660;2023-05-10T07:11:07;5.68;;;3.05;;
58643;SDS011;44411;49.994;8.660;2023-05-10T07:13:33;6.93;;;3.08;;
58643;SDS011;44411;49.994;8.660;2023-05-10T07:15:59;5.65;;;3.63;;
58643;SDS011;44411;49.994;8.660;2023-05-10T07:18:24;5.68;;;3.28;;
58643;SDS011;44411;49.994;8.660;2023-05-10T07:20:50;5.45;;;3.25;;
58643;SDS011;44411;49.994;8.660;2023-05-10T07:23:15;8.15;;;3.65;;
58643;SDS011;44411;49.994;8.660;2023-05-10T07:25:40;7.38;;;3.88;;
58643;SDS011;44411;49.994;8.660;2023-05-10T07:28:05;7.27;;;3.70;;
58643;SDS011;44411;49.994;8.660;2023-05-10T07:30:31;6.27;;;3.10;;
58643;SDS011;44411;49.994;8.660;2023-05-10T07:32:56;8.23;;;3.72;;
58643;SDS011;44411;49.994;8.660;2023-05-10T07:35:21;7.43;;;3.85;;
58643;SDS011;44411;49.994;8.660;2023-05-10T07:37:46;8.37;;;3.87;;
58643;SDS011;44411;49.994;8.660;2023-05-10T07:40:11;10.13;;;4.07;;
58643;SDS011;44411;49.994;8.660;2023-05-10T07:42:37;7.40;;;3.97;;
58643;SDS011;44411;49.994;8.660;2023-05-10T07:45:03;6.63;;;3.63;;
58643;SDS011;44411;49.994;8.660;2023-05-10T07:47:28;7.53;;;3.85;;
58643;SDS011;44411;49.994;8.660;2023-05-10T07:49:54;7.78;;;3.75;;
58643;SDS011;44411;49.994;8.660;2023-05-10T07:52:19;7.00;;;4.53;;
58643;SDS011;44411;49.994;8.660;2023-05-10T07:54:44;6.22;;;3.75;;
58643;SDS011;44411;49.994;8.660;2023-05-10T07:57:09;8.73;;;3.78;;
58643;SDS011;44411;49.994;8.660;2023-05-10T07:59:35;8.30;;;3.60;;
58643;SDS011;44411;49.994;8.660;2023-05-10T08:02:00;6.23;;;3.77;;
58643;SDS011;44411;49.994;8.660;2023-05-10T08:04:25;7.60;;;3.58;;
58643;SDS011;44411;49.994;8.660;2023-05-10T08:06:50;6.22;;;3.92;;
58643;SDS011;44411;49.994;8.660;2023-05-10T08:09:16;4.97;;;2.70;;
58643;SDS011;44411;49.994;8.660;2023-05-10T08:11:41;8.38;;;3.80;;
58643;SDS011;44411;49.994;8.660;2023-05-10T08:14:06;7.37;;;4.13;;
58643;SDS011;44411;49.994;8.660;2023-05-10T08:16:31;6.20;;;3.63;;
58643;SDS011;44411;49.994;8.660;2023-05-10T08:18:57;6.97;;;3.38;;
58643;SDS011;44411;49.994;8.660;2023-05-10T08:21:22;5.80;;;3.57;;
58643;SDS011;44411;49.994;8.660;2023-05-10T08:23:47;7.20;;;3.37;;
58643;SDS011;44411;49.994;8.660;2023-05-10T08:26:13;6.60;;;3.65;;
58643;SDS011;44411;49.994;8.660;2023-05-10T08:28:39;5.40;;;3.50;;
58643;SDS011;44411;49.994;8.660;2023-05-10T08:31:04;7.70;;;3.45;;
58643;SDS011;44411;49.994;8.660;2023-05-10T08:33:29;7.75;;;3.10;;
58643;SDS011;44411;49.994;8.660;2023-05-10T08:35:55;5.20;;;3.00;;
58643;SDS011;44411;49.994;8.660;2023-05-10T08:38:20;4.60;;;2.70;;
58643;SDS011;44411;49.994;8.660;2023-05-10T08:40:45;4.75;;;2.72;;
58643;SDS011;44411;49.994;8.660;2023-05-10T08:43:12;8.55;;;2.65;;
58643;SDS011;44411;49.994;8.660;2023-05-10T08:45:40;4.50;;;2.80;;
58643;SDS011;44411;49.994;8.660;2023-05-10T08:48:06;4.95;;;2.50;;
58643;SDS011;44411;49.994;8.660;2023-05-10T08:50:33;5.28;;;2.95;;
58643;SDS011;44411;49.994;8.660;2023-05-10T08:53:00;7.78;;;3.38;;
58643;SDS011;44411;49.994;8.660;2023-05-10T08:55:26;5.13;;;2.45;;
58643;SDS011;44411;49.994;8.660;2023-05-10T08:57:51;4.70;;;2.13;;
58643;SDS011;44411;49.994;8.660;2023-05-10T09:00:17;4.05;;;2.22;;
58643;SDS011;44411;49.994;8.660;2023-05-10T09:02:43;5.78;;;2.65;;
58643;SDS011;44411;49.994;8.660;2023-05-10T09:05:08;4.75;;;2.70;;
58643;SDS011;44411;49.994;8.660;2023-05-10T09:07:34;3.78;;;2.30;;
58643;SDS011;44411;49.994;8.660;2023-05-10T09:10:00;4.20;;;2.40;;
58643;SDS011;44411;49.994;8.660;2023-05-10T09:12:25;5.22;;;2.35;;
58643;SDS011;44411;49.994;8.660;2023-05-10T09:14:51;7.15;;;3.67;;
58643;SDS011;44411;49.994;8.660;2023-05-10T09:17:17;5.75;;;3.80;;
58643;SDS011;44411;49.994;8.660;2023-05-10T09:19:42;6.25;;;3.42;;
58643;SDS011;44411;49.994;8.660;2023-05-10T09:22:07;7.60;;;3.40;;
58643;SDS011;44411;49.994;8.660;2023-05-10T09:24:33;5.32;;;3.40;;
58643;SDS011;44411;49.994;8.660;2023-05-10T09:26:58;6.65;;;4.82;;
58643;SDS011;44411;49.994;8.660;2023-05-10T09:29:23;6.97;;;4.05;;
58643;SDS011;44411;49.994;8.660;2023-05-10T09:31:49;7.88;;;3.70;;
58643;SDS011;44411;49.994;8.660;2023-05-10T09:34:31;5.60;;;3.10;;
58643;SDS011;44411;49.994;8.660;2023-05-10T09:36:58;7.93;;;3.45;;
58643;SDS011;44411;49.994;8.660;2023-05-10T09:39:30;6.68;;;3.58;;
58643;SDS011;44411;49.994;8.660;2023-05-10T09:41:55;5.50;;;3.10;;
58643;SDS011;44411;49.994;8.660;2023-05-10T09:44:21;7.63;;;3.80;;
58643;SDS011;44411;49.994;8.660;2023-05-10T09:46:50;6.17;;;4.17;;
58643;SDS011;44411;49.994;8.660;2023-05-10T09:49:15;7.05;;;3.70;;
58643;SDS011;44411;49.994;8.660;2023-05-10T09:51:41;7.28;;;3.55;;
58643;SDS011;44411;49.994;8.660;2023-05-10T09:54:09;5.27;;;2.87;;
58643;SDS011;44411;49.994;8.660;2023-05-10T09:56:35;4.75;;;3.00;;
58643;SDS011;44411;49.994;8.660;2023-05-10T09:59:02;5.53;;;2.13;;
58643;SDS011;44411;49.994;8.660;2023-05-10T10:01:28;6.07;;;2.85;;
58643;SDS011;44411;49.994;8.660;2023-05-10T10:03:53;5.45;;;2.95;;
58643;SDS011;44411;49.994;8.660;2023-05-10T10:06:19;8.13;;;3.20;;
58643;SDS011;44411;49.994;8.660;2023-05-10T10:08:44;5.13;;;2.92;;
58643;SDS011;44411;49.994;8.660;2023-05-10T10:11:09;4.35;;;1.80;;
58643;SDS011;44411;49.994;8.660;2023-05-10T10:13:35;6.68;;;2.50;;
58643;SDS011;44411;49.994;8.660;2023-05-10T10:16:00;5.37;;;2.00;;
58643;SDS011;44411;49.994;8.660;2023-05-10T10:18:25;4.43;;;2.05;;
58643;SDS011;44411;49.994;8.660;2023-05-10T10:20:52;5.03;;;2.03;;
58643;SDS011;44411;49.994;8.660;2023-05-10T10:23:19;5.30;;;2.67;;
58643;SDS011;44411;49.994;8.660;2023-05-10T10:25:44;5.40;;;2.60;;
58643;SDS011;44411;49.994;8.660;2023-05-10T10:28:19;5.07;;;2.40;;
58643;SDS011;44411;49.994;8.660;2023-05-10T10:30:48;4.22;;;2.20;;
58643;SDS011;44411;49.994;8.660;2023-05-10T10:35:46;8.00;;;2.60;;
58643;SDS011;44411;49.994;8.660;2023-05-10T10:38:12;6.38;;;2.50;;
58643;SDS011;44411;49.994;8.660;2023-05-10T10:40:43;6.03;;;2.47;;
58643;SDS011;44411;49.994;8.660;2023-05-10T10:46:28;7.85;;;2.88;;
58643;SDS011;44411;49.994;8.660;2023-05-10T10:49:14;7.10;;;3.10;;
58643;SDS011;44411;49.994;8.660;2023-05-10T10:52:34;3.38;;;1.70;;
58643;SDS011;44411;49.994;8.660;2023-05-10T10:54:46;2.85;;;1.35;;
58643;SDS011;44411;49.994;8.660;2023-05-10T11:03:30;2.55;;;1.25;;
58643;SDS011;44411;49.994;8.660;2023-05-10T11:06:47;3.42;;;1.90;;
58643;SDS011;44411;49.994;8.660;2023-05-10T11:18:51;4.65;;;2.00;;
58643;SDS011;44411;49.994;8.660;2023-05-10T11:21:24;3.35;;;1.83;;
58643;SDS011;44411;49.994;8.660;2023-05-10T11:23:53;3.78;;;1.95;;
58643;SDS011;44411;49.994;8.660;2023-05-10T11:26:35;4.10;;;2.30;;
58643;SDS011;44411;49.994;8.660;2023-05-10T11:29:16;3.58;;;2.03;;
58643;SDS011;44411;49.994;8.660;2023-05-10T11:31:57;5.13;;;1.83;;
58643;SDS011;44411;49.994;8.660;2023-05-10T11:34:29;4.25;;;1.95;;
58643;SDS011;44411;49.994;8.660;2023-05-10T11:36:55;4.35;;;2.20;;
58643;SDS011;44411;49.994;8.660;2023-05-10T11:39:29;3.20;;;1.83;;
58643;SDS011;44411;49.994;8.660;2023-05-10T11:41:55;4.10;;;2.13;;
58643;SDS011;44411;49.994;8.660;2023-05-10T11:44:20;2.95;;;1.83;;
58643;SDS011;44411;49.994;8.660;2023-05-10T11:46:46;4.13;;;1.90;;
58643;SDS011;44411;49.994;8.660;2023-05-10T11:49:11;4.33;;;2.37;;
58643;SDS011;44411;49.994;8.660;2023-05-10T11:51:38;3.67;;;2.03;;
58643;SDS011;44411;49.994;8.660;2023-05-10T11:54:07;3.55;;;2.00;;
58643;SDS011;44411;49.994;8.660;2023-05-10T11:56:39;4.43;;;1.73;;
58643;SDS011;44411;49.994;8.660;2023-05-10T11:59:04;2.55;;;1.60;;
58643;SDS011;44411;49.994;8.660;2023-05-10T12:01:30;2.13;;;1.20;;
58643;SDS011;44411;49.994;8.660;2023-05-10T12:03:56;2.97;;;1.35;;
58643;SDS011;44411;49.994;8.660;2023-05-10T12:06:26;3.25;;;1.40;;
58643;SDS011;44411;49.994;8.660;2023-05-10T12:08:52;3.15;;;1.20;;
58643;SDS011;44411;49.994;8.660;2023-05-10T12:11:20;2.58;;;1.00;;
58643;SDS011;44411;49.994;8.660;2023-05-10T12:13:49;1.33;;;0.93;;
58643;SDS011;44411;49.994;8.660;2023-05-10T12:16:19;2.72;;;1.27;;
58643;SDS011;44411;49.994;8.660;2023-05-10T12:18:48;2.85;;;0.70;;
58643;SDS011;44411;49.994;8.660;2023-05-10T12:21:14;2.28;;;1.02;;
58643;SDS011;44411;49.994;8.660;2023-05-10T12:23:40;1.35;;;0.90;;
58643;SDS011;44411;49.994;8.660;2023-05-10T12:26:05;2.42;;;0.90;;
58643;SDS011;44411;49.994;8.660;2023-05-10T12:28:31;1.27;;;0.80;;
58643;SDS011;44411;49.994;8.660;2023-05-10T12:31:00;2.60;;;0.93;;
58643;SDS011;44411;49.994;8.660;2023-05-10T12:33:26;1.97;;;0.60;;
58643;SDS011;44411;49.994;8.660;2023-05-10T12:35:52;1.17;;;0.77;;
58643;SDS011;44411;49.994;8.660;2023-05-10T12:38:37;1.92;;;0.90;;
58643;SDS011;44411;49.994;8.660;2023-05-10T12:41:07;1.75;;;1.20;;
58643;SDS011;44411;49.994;8.660;2023-05-10T12:43:32;1.90;;;1.08;;
58643;SDS011;44411;49.994;8.660;2023-05-10T12:45:58;1.20;;;0.80;;
58643;SDS011;44411;49.994;8.660;2023-05-10T12:48:23;1.33;;;0.90;;
58643;SDS011;44411;49.994;8.660;2023-05-10T12:50:49;1.75;;;0.77;;
58643;SDS011;44411;49.994;8.660;2023-05-10T12:53:14;1.00;;;0.50;;
58643;SDS011;44411;49.994;8.660;2023-05-10T12:55:43;1.15;;;0.60;;
58643;SDS011;44411;49.994;8.660;2023-05-10T12:58:08;2.83;;;0.70;;
58643;SDS011;44411;49.994;8.660;2023-05-10T13:00:33;0.70;;;0.55;;
58643;SDS011;44411;49.994;8.660;2023-05-10T13:02:58;1.43;;;0.63;;
58643;SDS011;44411;49.994;8.660;2023-05-10T13:05:23;1.10;;;0.63;;
58643;SDS011;44411;49.994;8.660;2023-05-10T13:07:49;1.02;;;0.60;;
58643;SDS011;44411;49.994;8.660;2023-05-10T13:10:14;2.58;;;0.80;;
58643;SDS011;44411;49.994;8.660;2023-05-10T13:12:40;1.27;;;0.70;;
58643;SDS011;44411;49.994;8.660;2023-05-10T13:15:05;1.90;;;0.77;;
58643;SDS011;44411;49.994;8.660;2023-05-10T13:17:31;1.17;;;0.90;;
58643;SDS011;44411;49.994;8.660;2023-05-10T13:19:57;2.13;;;0.90;;
58643;SDS011;44411;49.994;8.660;2023-05-10T13:22:22;1.40;;;0.90;;
58643;SDS011;44411;49.994;8.660;2023-05-10T13:24:47;1.73;;;0.93;;
58643;SDS011;44411;49.994;8.660;2023-05-10T13:27:12;2.47;;;1.00;;
58643;SDS011;44411;49.994;8.660;2023-05-10T13:29:38;1.67;;;0.90;;
58643;SDS011;44411;49.994;8.660;2023-05-10T13:32:03;1.40;;;0.90;;
58643;SDS011;44411;49.994;8.660;2023-05-10T13:34:28;3.03;;;1.20;;
58643;SDS011;44411;49.994;8.660;2023-05-10T13:36:53;1.27;;;0.83;;
58643;SDS011;44411;49.994;8.660;2023-05-10T13:39:20;1.23;;;0.93;;
58643;SDS011;44411;49.994;8.660;2023-05-10T13:41:46;1.63;;;0.90;;
58643;SDS011;44411;49.994;8.660;2023-05-10T13:44:14;1.90;;;0.90;;
58643;SDS011;44411;49.994;8.660;2023-05-10T13:46:40;1.55;;;0.90;;
58643;SDS011;44411;49.994;8.660;2023-05-10T13:49:05;1.15;;;0.90;;
58643;SDS011;44411;49.994;8.660;2023-05-10T13:51:30;1.25;;;0.70;;
58643;SDS011;44411;49.994;8.660;2023-05-10T13:53:58;1.63;;;1.00;;
58643;SDS011;44411;49.994;8.660;2023-05-10T13:56:24;1.50;;;0.90;;
58643;SDS011;44411;49.994;8.660;2023-05-10T13:58:49;2.05;;;0.95;;
58643;SDS011;44411;49.994;8.660;2023-05-10T14:01:14;2.03;;;1.10;;
58643;SDS011;44411;49.994;8.660;2023-05-10T14:03:40;1.50;;;0.95;;
58643;SDS011;44411;49.994;8.660;2023-05-10T14:06:05;2.22;;;1.25;;
58643;SDS011;44411;49.994;8.660;2023-05-10T14:08:32;1.85;;;1.20;;
58643;SDS011;44411;49.994;8.660;2023-05-10T14:10:57;2.93;;;1.77;;
58643;SDS011;44411;49.994;8.660;2023-05-10T14:13:22;2.83;;;1.10;;
58643;SDS011;44411;49.994;8.660;2023-05-10T14:15:48;1.88;;;1.13;;
58643;SDS011;44411;49.994;8.660;2023-05-10T14:18:13;2.25;;;0.80;;
58643;SDS011;44411;49.994;8.660;2023-05-10T14:20:39;3.35;;;1.20;;
58643;SDS011;44411;49.994;8.660;2023-05-10T14:23:04;2.38;;;1.30;;
58643;SDS011;44411;49.994;8.660;2023-05-10T14:25:30;3.20;;;1.30;;
58643;SDS011;44411;49.994;8.660;2023-05-10T14:27:55;2.80;;;1.10;;
58643;SDS011;44411;49.994;8.660;2023-05-10T14:30:20;1.27;;;0.90;;
58643;SDS011;44411;49.994;8.660;2023-05-10T14:32:46;4.70;;;1.23;;
58643;SDS011;44411;49.994;8.660;2023-05-10T14:35:11;2.60;;;1.40;;
58643;SDS011;44411;49.994;8.660;2023-05-10T14:37:37;2.83;;;1.20;;
58643;SDS011;44411;49.994;8.660;2023-05-10T14:40:03;2.40;;;0.95;;
58643;SDS011;44411;49.994;8.660;2023-05-10T14:42:29;4.63;;;1.23;;
58643;SDS011;44411;49.994;8.660;2023-05-10T14:44:54;1.88;;;1.00;;
58643;SDS011;44411;49.994;8.660;2023-05-10T14:47:19;2.70;;;1.20;;
58643;SDS011;44411;49.994;8.660;2023-05-10T14:49:44;3.57;;;1.00;;
58643;SDS011;44411;49.994;8.660;2023-05-10T14:52:10;2.30;;;1.07;;
58643;SDS011;44411;49.994;8.660;2023-05-10T14:54:37;2.70;;;1.00;;
58643;SDS011;44411;49.994;8.660;2023-05-10T14:57:02;2.17;;;1.00;;
58643;SDS011;44411;49.994;8.660;2023-05-10T14:59:27;2.08;;;1.15;;
58643;SDS011;44411;49.994;8.660;2023-05-10T15:01:52;1.73;;;0.97;;
58643;SDS011;44411;49.994;8.660;2023-05-10T15:04:18;2.40;;;1.10;;
58643;SDS011;44411;49.994;8.660;2023-05-10T15:06:43;2.50;;;1.13;;
58643;SDS011;44411;49.994;8.660;2023-05-10T15:09:08;3.00;;;1.23;;
58643;SDS011;44411;49.994;8.660;2023-05-10T15:11:33;2.85;;;1.00;;
58643;SDS011;44411;49.994;8.660;2023-05-10T15:13:59;2.33;;;0.93;;
58643;SDS011;44411;49.994;8.660;2023-05-10T15:16:24;1.27;;;0.87;;
58643;SDS011;44411;49.994;8.660;2023-05-10T15:18:49;2.25;;;1.23;;
58643;SDS011;44411;49.994;8.660;2023-05-10T15:21:14;1.13;;;1.00;;
58643;SDS011;44411;49.994;8.660;2023-05-10T15:23:40;1.83;;;0.90;;
58643;SDS011;44411;49.994;8.660;2023-05-10T15:26:05;1.70;;;1.10;;
58643;SDS011;44411;49.994;8.660;2023-05-10T15:28:30;2.28;;;0.90;;
58643;SDS011;44411;49.994;8.660;2023-05-10T15:30:56;4.30;;;1.00;;
58643;SDS011;44411;49.994;8.660;2023-05-10T15:33:21;2.05;;;0.90;;
58643;SDS011;44411;49.994;8.660;2023-05-10T15:35:46;2.50;;;1.00;;
58643;SDS011;44411;49.994;8.660;2023-05-10T15:38:11;1.70;;;0.88;;
58643;SDS011;44411;49.994;8.660;2023-05-10T15:40:37;1.77;;;0.90;;
58643;SDS011;44411;49.994;8.660;2023-05-10T15:43:02;1.80;;;1.02;;
58643;SDS011;44411;49.994;8.660;2023-05-10T15:45:28;4.07;;;1.27;;
58643;SDS011;44411;49.994;8.660;2023-05-10T15:47:53;2.17;;;0.90;;
58643;SDS011;44411;49.994;8.660;2023-05-10T15:50:18;1.30;;;0.90;;
58643;SDS011;44411;49.994;8.660;2023-05-10T15:52:43;2.50;;;1.17;;
58643;SDS011;44411;49.994;8.660;2023-05-10T15:55:09;2.55;;;1.13;;
58643;SDS011;44411;49.994;8.660;2023-05-10T15:57:39;2.05;;;1.05;;
58643;SDS011;44411;49.994;8.660;2023-05-10T16:00:06;2.03;;;1.40;;
58643;SDS011;44411;49.994;8.660;2023-05-10T16:02:31;2.10;;;1.15;;
58643;SDS011;44411;49.994;8.660;2023-05-10T16:04:56;4.53;;;1.20;;
58643;SDS011;44411;49.994;8.660;2023-05-10T16:07:23;6.47;;;1.15;;
58643;SDS011;44411;49.994;8.660;2023-05-10T16:09:48;4.00;;;1.00;;
58643;SDS011;44411;49.994;8.660;2023-05-10T16:12:14;2.33;;;1.10;;
58643;SDS011;44411;49.994;8.660;2023-05-10T16:14:39;2.22;;;0.90;;
58643;SDS011;44411;49.994;8.660;2023-05-10T16:17:04;4.72;;;1.02;;
58643;SDS011;44411;49.994;8.660;2023-05-10T16:19:29;1.67;;;0.90;;
58643;SDS011;44411;49.994;8.660;2023-05-10T16:21:55;1.90;;;1.02;;
58643;SDS011;44411;49.994;8.660;2023-05-10T16:24:23;1.02;;;0.77;;
58643;SDS011;44411;49.994;8.660;2023-05-10T16:26:49;2.35;;;0.90;;
58643;SDS011;44411;49.994;8.660;2023-05-10T16:29:14;4.15;;;1.17;;
58643;SDS011;44411;49.994;8.660;2023-05-10T16:31:40;2.13;;;1.25;;
58643;SDS011;44411;49.994;8.660;2023-05-10T16:34:05;2.28;;;1.00;;
58643;SDS011;44411;49.994;8.660;2023-05-10T16:36:31;1.45;;;0.90;;
58643;SDS011;44411;49.994;8.660;2023-05-10T16:38:56;2.03;;;0.85;;
58643;SDS011;44411;49.994;8.660;2023-05-10T16:41:24;1.23;;;0.77;;
58643;SDS011;44411;49.994;8.660;2023-05-10T16:43:50;2.20;;;0.80;;
58643;SDS011;44411;49.994;8.660;2023-05-10T16:46:15;1.48;;;0.85;;
58643;SDS011;44411;49.994;8.660;2023-05-10T16:48:43;3.17;;;1.10;;
58643;SDS011;44411;49.994;8.660;2023-05-10T16:51:08;2.10;;;1.10;;
58643;SDS011;44411;49.994;8.660;2023-05-10T16:53:34;1.90;;;0.90;;
58643;SDS011;44411;49.994;8.660;2023-05-10T16:56:00;3.47;;;1.17;;
58643;SDS011;44411;49.994;8.660;2023-05-10T16:58:25;3.35;;;1.00;;
58643;SDS011;44411;49.994;8.660;2023-05-10T17:00:50;2.30;;;1.00;;
58643;SDS011;44411;49.994;8.660;2023-05-10T17:03:16;2.63;;;1.00;;
58643;SDS011;44411;49.994;8.660;2023-05-10T17:05:41;1.55;;;0.93;;
58643;SDS011;44411;49.994;8.660;2023-05-10T17:08:07;1.60;;;0.85;;
58643;SDS011;44411;49.994;8.660;2023-05-10T17:10:33;3.28;;;1.20;;
58643;SDS011;44411;49.994;8.660;2023-05-10T17:12:58;1.67;;;1.00;;
58643;SDS011;44411;49.994;8.660;2023-05-10T17:15:23;4.53;;;1.10;;
58643;SDS011;44411;49.994;8.660;2023-05-10T17:17:48;3.80;;;1.00;;
58643;SDS011;44411;49.994;8.660;2023-05-10T17:20:13;1.87;;;0.97;;
58643;SDS011;44411;49.994;8.660;2023-05-10T17:22:39;1.03;;;0.80;;
58643;SDS011;44411;49.994;8.660;2023-05-10T17:25:04;2.05;;;0.75;;
58643;SDS011;44411;49.994;8.660;2023-05-10T17:27:29;2.45;;;1.02;;
58643;SDS011;44411;49.994;8.660;2023-05-10T17:29:55;1.42;;;0.93;;
58643;SDS011;44411;49.994;8.660;2023-05-10T17:32:21;1.33;;;0.90;;
58643;SDS011;44411;49.994;8.660;2023-05-10T17:34:46;1.95;;;1.08;;
58643;SDS011;44411;49.994;8.660;2023-05-10T17:37:11;1.67;;;1.00;;
58643;SDS011;44411;49.994;8.660;2023-05-10T17:39:36;1.43;;;0.93;;
58643;SDS011;44411;49.994;8.660;2023-05-10T17:42:02;4.23;;;1.70;;
58643;SDS011;44411;49.994;8.660;2023-05-10T17:44:27;3.22;;;1.15;;
58643;SDS011;44411;49.994;8.660;2023-05-10T17:46:53;3.90;;;1.47;;
58643;SDS011;44411;49.994;8.660;2023-05-10T17:49:18;1.50;;;1.10;;
58643;SDS011;44411;49.994;8.660;2023-05-10T17:51:44;2.67;;;1.58;;
58643;SDS011;44411;49.994;8.660;2023-05-10T17:54:11;3.83;;;1.23;;
58643;SDS011;44411;49.994;8.660;2023-05-10T17:56:37;2.60;;;1.33;;
58643;SDS011;44411;49.994;8.660;2023-05-10T17:59:02;4.27;;;1.40;;
58643;SDS011;44411;49.994;8.660;2023-05-10T18:01:27;4.03;;;1.40;;
58643;SDS011;44411;49.994;8.660;2023-05-10T18:03:52;3.03;;;1.40;;
58643;SDS011;44411;49.994;8.660;2023-05-10T18:06:18;3.42;;;1.60;;
58643;SDS011;44411;49.994;8.660;2023-05-10T18:08:43;3.57;;;1.87;;
58643;SDS011;44411;49.994;8.660;2023-05-10T18:11:08;3.08;;;1.60;;
58643;SDS011;44411;49.994;8.660;2023-05-10T18:13:34;3.00;;;1.50;;
58643;SDS011;44411;49.994;8.660;2023-05-10T18:15:59;4.00;;;1.50;;
58643;SDS011;44411;49.994;8.660;2023-05-10T18:18:24;3.67;;;1.13;;
58643;SDS011;44411;49.994;8.660;2023-05-10T18:20:49;2.30;;;1.33;;
58643;SDS011;44411;49.994;8.660;2023-05-10T18:23:20;3.53;;;1.30;;
58643;SDS011;44411;49.994;8.660;2023-05-10T18:25:45;3.15;;;1.40;;
58643;SDS011;44411;49.994;8.660;2023-05-10T18:28:11;3.03;;;1.40;;
58643;SDS011;44411;49.994;8.660;2023-05-10T18:30:36;4.15;;;1.35;;
58643;SDS011;44411;49.994;8.660;2023-05-10T18:33:01;4.70;;;1.77;;
58643;SDS011;44411;49.994;8.660;2023-05-10T18:35:27;3.13;;;1.50;;
58643;SDS011;44411;49.994;8.660;2023-05-10T18:37:52;2.55;;;1.50;;
58643;SDS011;44411;49.994;8.660;2023-05-10T18:40:18;13.57;;;2.03;;
58643;SDS011;44411;49.994;8.660;2023-05-10T18:42:43;3.30;;;1.55;;
58643;SDS011;44411;49.994;8.660;2023-05-10T18:45:10;3.65;;;1.60;;
58643;SDS011;44411;49.994;8.660;2023-05-10T18:47:36;2.50;;;1.60;;
58643;SDS011;44411;49.994;8.660;2023-05-10T18:50:02;3.03;;;1.30;;
58643;SDS011;44411;49.994;8.660;2023-05-10T18:52:28;3.63;;;1.55;;
58643;SDS011;44411;49.994;8.660;2023-05-10T18:54:53;3.23;;;1.50;;
58643;SDS011;44411;49.994;8.660;2023-05-10T18:57:18;3.47;;;1.50;;
58643;SDS011;44411;49.994;8.660;2023-05-10T18:59:45;1.67;;;1.05;;
58643;SDS011;44411;49.994;8.660;2023-05-10T19:02:10;2.83;;;1.10;;
58643;SDS011;44411;49.994;8.660;2023-05-10T19:04:35;2.20;;;1.20;;
58643;SDS011;44411;49.994;8.660;2023-05-10T19:07:01;4.53;;;1.63;;
58643;SDS011;44411;49.994;8.660;2023-05-10T19:09:27;2.78;;;1.45;;
58643;SDS011;44411;49.994;8.660;2023-05-10T19:11:52;2.72;;;1.40;;
58643;SDS011;44411;49.994;8.660;2023-05-10T19:14:18;6.03;;;1.70;;
58643;SDS011;44411;49.994;8.660;2023-05-10T19:16:43;2.93;;;1.30;;